X  SluitMETAR luchtvaart weer gegevens      EHRD Rotterdam The Hague Airport

Temperatuur

14°C Temperatuur

10°C Dauwpunt

77% Vochtigheid



Wind

13 KM/U

 8 MPH

 4 M/S

 7 KTS



50°
Noord Oost
Huidig weer

Helder Helder
Luchtdruk 1017.92 (hPa) - 30.06 (in)
Zicht 6.2 (mi) - 10 (km)
Vliegveld
Vliegveld code EHRD

Locatie Rotterdam The Hague Airport 30 (km)

Metar:
EHRD 201955Z AUTO 05007KT 9999 NCD 14/10 Q1018 NOSIG

Tijd: 20-09-2020 21:55